Time;durP1;ratioP1;P1;durP2;ratioP2;P2;SDS_P1;SDS_P2;PMS_P1;PMS_P2;Temp;Humidity;BMP_temperature;BMP_pressure;BME280_temperature;BME280_humidity;BME280_pressure;Samples;Min_cycle;Max_cycle;Signal;HPM_P1;HPM_P2
2022/12/05 00:01:23;;;;;;;4.77;4.27;;;;;;;;;;5074922;28;20189;-86
2022/12/05 00:03:52;;;;;;;4.93;4.43;;;;;;;;;;5062398;28;20292;-86
2022/12/05 00:06:19;;;;;;;5.43;4.80;;;;;;;;;;5049125;28;20210;-87
2022/12/05 00:08:47;;;;;;;4.50;3.93;;;;;;;;;;5061444;28;20707;-87
2022/12/05 00:11:16;;;;;;;4.50;3.97;;;;;;;;;;5075777;28;20332;-88
2022/12/05 00:13:44;;;;;;;5.00;4.10;;;;;;;;;;5075246;28;20220;-87
2022/12/05 00:16:17;;;;;;;10.07;6.33;;;;;;;;;;5075694;28;20227;-90
2022/12/05 00:18:44;;;;;;;11.80;9.33;;;;;;;;;;5074622;28;20294;-87
2022/12/05 00:21:14;;;;;;;15.20;9.93;;;;;;;;;;5074592;28;20212;-88
2022/12/05 00:23:42;;;;;;;12.57;8.70;;;;;;;;;;5037727;28;20248;-90
2022/12/05 00:26:10;;;;;;;11.40;7.80;;;;;;;;;;5054715;28;20214;-87
2022/12/05 00:28:38;;;;;;;10.17;7.80;;;;;;;;;;5070533;28;20197;-87
2022/12/05 00:31:07;;;;;;;9.97;8.00;;;;;;;;;;5057938;28;20235;-87
2022/12/05 00:33:37;;;;;;;8.57;7.73;;;;;;;;;;5074693;28;20216;-87
2022/12/05 00:36:04;;;;;;;8.80;7.23;;;;;;;;;;5068426;28;20205;-87
2022/12/05 00:38:32;;;;;;;9.33;7.20;;;;;;;;;;5054901;28;20696;-87
2022/12/05 00:41:03;;;;;;;14.80;8.23;;;;;;;;;;5074168;28;20225;-87
2022/12/05 00:43:32;;;;;;;10.50;9.13;;;;;;;;;;5073236;28;20620;-88
2022/12/05 00:46:02;;;;;;;10.87;7.87;;;;;;;;;;5074240;28;20215;-88
2022/12/05 00:48:29;;;;;;;11.70;8.53;;;;;;;;;;5074918;28;20232;-88
2022/12/05 00:51:08;;;;;;;11.57;8.30;;;;;;;;;;5071068;28;20206;-88
2022/12/05 00:53:36;;;;;;;13.27;7.90;;;;;;;;;;5065947;28;20290;-88
2022/12/05 00:56:05;;;;;;;10.07;7.90;;;;;;;;;;5053540;28;20226;-88
2022/12/05 00:58:33;;;;;;;24.77;14.20;;;;;;;;;;5066446;28;20259;-87
2022/12/05 01:01:06;;;;;;;20.77;14.80;;;;;;;;;;5074447;28;20216;-88
2022/12/05 01:03:34;;;;;;;17.60;13.50;;;;;;;;;;5055367;28;20216;-87
2022/12/05 01:06:04;;;;;;;14.23;11.67;;;;;;;;;;5054589;28;20607;-87
2022/12/05 01:08:34;;;;;;;17.17;12.00;;;;;;;;;;5071511;28;20661;-88
2022/12/05 01:11:03;;;;;;;12.93;9.97;;;;;;;;;;5057578;28;20256;-88
2022/12/05 01:13:32;;;;;;;10.57;8.20;;;;;;;;;;5071694;28;20243;-87
2022/12/05 01:16:00;;;;;;;9.00;6.87;;;;;;;;;;5074410;28;20221;-88
2022/12/05 01:18:28;;;;;;;9.17;7.23;;;;;;;;;;5060207;28;20264;-87
2022/12/05 01:20:56;;;;;;;17.53;14.87;;;;;;;;;;5074156;28;20216;-88
2022/12/05 01:23:24;;;;;;;16.50;12.90;;;;;;;;;;5045970;28;20201;-88
2022/12/05 01:25:54;;;;;;;13.57;9.77;;;;;;;;;;5051753;28;20205;-87
2022/12/05 01:28:22;;;;;;;9.57;7.90;;;;;;;;;;5056338;28;20201;-88
2022/12/05 01:30:54;;;;;;;10.90;8.10;;;;;;;;;;5068585;28;20260;-87
2022/12/05 01:33:22;;;;;;;8.80;7.90;;;;;;;;;;5054053;28;20205;-89
2022/12/05 01:35:50;;;;;;;8.40;6.90;;;;;;;;;;5055131;28;20634;-87
2022/12/05 01:38:18;;;;;;;8.03;6.93;;;;;;;;;;5062852;28;20210;-88
2022/12/05 01:40:46;;;;;;;10.07;7.57;;;;;;;;;;5049975;28;20237;-88
2022/12/05 01:43:17;;;;;;;9.87;7.40;;;;;;;;;;5064339;28;20270;-88
2022/12/05 01:45:46;;;;;;;7.50;6.50;;;;;;;;;;5073776;28;20674;-87
2022/12/05 01:48:17;;;;;;;7.60;6.67;;;;;;;;;;5048066;28;20201;-87
2022/12/05 01:50:45;;;;;;;9.33;6.33;;;;;;;;;;5067068;28;20244;-86
2022/12/05 01:53:12;;;;;;;11.93;9.20;;;;;;;;;;5060904;28;20220;-87
2022/12/05 01:55:40;;;;;;;8.57;6.70;;;;;;;;;;5072993;28;20236;-87
2022/12/05 01:58:08;;;;;;;8.10;7.07;;;;;;;;;;5069548;28;20212;-87
2022/12/05 02:00:40;;;;;;;8.33;7.03;;;;;;;;;;5064523;28;20668;-87
2022/12/05 02:03:12;;;;;;;10.70;7.67;;;;;;;;;;5068454;28;20219;-88
2022/12/05 02:05:39;;;;;;;7.53;6.70;;;;;;;;;;5050465;28;20568;-87
2022/12/05 02:08:08;;;;;;;9.67;8.37;;;;;;;;;;5066786;28;20295;-88
2022/12/05 02:10:42;;;;;;;8.67;7.77;;;;;;;;;;5053124;28;20214;-87
2022/12/05 02:13:19;;;;;;;8.30;7.23;;;;;;;;;;5052735;28;20241;-88
2022/12/05 02:15:51;;;;;;;9.13;6.67;;;;;;;;;;5072404;28;20243;-87
2022/12/05 02:18:29;;;;;;;9.37;7.07;;;;;;;;;;5058777;28;20209;-89
2022/12/05 02:21:07;;;;;;;8.37;7.30;;;;;;;;;;5054811;28;20205;-87
2022/12/05 02:24:07;;;;;;;9.37;7.37;;;;;;;;;;5072869;28;20209;-87
2022/12/05 02:27:02;;;;;;;9.23;7.60;;;;;;;;;;5042428;28;21089;-89
2022/12/05 02:30:11;;;;;;;10.80;7.03;;;;;;;;;;5055954;28;20209;-88
2022/12/05 02:32:48;;;;;;;10.10;8.07;;;;;;;;;;5057589;28;20216;-87
2022/12/05 02:35:25;;;;;;;10.97;9.00;;;;;;;;;;5054865;28;20311;-87
2022/12/05 02:38:01;;;;;;;8.83;7.93;;;;;;;;;;5054878;28;20254;-89
2022/12/05 02:40:32;;;;;;;9.97;7.87;;;;;;;;;;5056786;28;20723;-87
2022/12/05 02:43:02;;;;;;;10.30;8.53;;;;;;;;;;5042913;28;20204;-87
2022/12/05 02:45:33;;;;;;;10.60;8.10;;;;;;;;;;5054441;28;20231;-87
2022/12/05 02:48:01;;;;;;;7.83;6.67;;;;;;;;;;5064928;28;21089;-87
2022/12/05 02:50:32;;;;;;;7.10;6.40;;;;;;;;;;5065942;28;20212;-87
2022/12/05 02:53:04;;;;;;;7.30;6.20;;;;;;;;;;5042345;28;20208;-88
2022/12/05 02:55:31;;;;;;;9.63;8.63;;;;;;;;;;5066040;28;20218;-87
2022/12/05 02:58:02;;;;;;;7.10;6.43;;;;;;;;;;5053479;28;20707;-87
2022/12/05 03:00:32;;;;;;;7.07;5.97;;;;;;;;;;5071838;28;20209;-87
2022/12/05 03:03:13;;;;;;;8.93;6.60;;;;;;;;;;5040243;28;20236;-87
2022/12/05 03:05:43;;;;;;;7.03;5.93;;;;;;;;;;5058645;28;20208;-87
2022/12/05 03:08:14;;;;;;;7.07;6.37;;;;;;;;;;5057042;28;20213;-87
2022/12/05 03:10:43;;;;;;;7.30;6.27;;;;;;;;;;5059370;28;20262;-87
2022/12/05 03:13:15;;;;;;;6.33;5.60;;;;;;;;;;5071007;28;20697;-87
2022/12/05 03:15:47;;;;;;;8.03;7.00;;;;;;;;;;5041288;28;20313;-87
2022/12/05 03:18:17;;;;;;;7.07;6.37;;;;;;;;;;5058506;28;20236;-87
2022/12/05 03:20:48;;;;;;;7.53;6.83;;;;;;;;;;5058511;28;20208;-87
2022/12/05 03:23:19;;;;;;;7.13;6.43;;;;;;;;;;5071711;28;20197;-87
2022/12/05 03:25:52;;;;;;;8.17;7.37;;;;;;;;;;5071949;28;20216;-88
2022/12/05 03:28:24;;;;;;;8.67;6.97;;;;;;;;;;5059048;28;20271;-88
2022/12/05 03:30:58;;;;;;;7.70;6.97;;;;;;;;;;5057231;28;20278;-88
2022/12/05 03:33:28;;;;;;;8.20;7.37;;;;;;;;;;5071504;28;20255;-87
2022/12/05 03:36:01;;;;;;;8.73;7.03;;;;;;;;;;5040112;28;20703;-87
2022/12/05 03:38:32;;;;;;;8.73;7.83;;;;;;;;;;5059108;28;20205;-87
2022/12/05 03:41:09;;;;;;;8.80;7.87;;;;;;;;;;5070672;28;20290;-88
2022/12/05 03:43:40;;;;;;;8.47;7.67;;;;;;;;;;5071945;28;20208;-88
2022/12/05 03:46:13;;;;;;;8.50;7.30;;;;;;;;;;5048104;28;20251;-86
2022/12/05 03:48:46;;;;;;;7.93;7.17;;;;;;;;;;5063767;28;20216;-86
2022/12/05 03:51:16;;;;;;;8.60;7.20;;;;;;;;;;5048047;28;20309;-87
2022/12/05 03:53:47;;;;;;;9.03;7.10;;;;;;;;;;5049377;28;20205;-87
2022/12/05 03:56:18;;;;;;;7.63;6.50;;;;;;;;;;5039950;28;20236;-87
2022/12/05 03:58:50;;;;;;;7.47;6.77;;;;;;;;;;5046180;28;20194;-87
2022/12/05 04:01:20;;;;;;;10.80;9.67;;;;;;;;;;5051219;28;20202;-88
2022/12/05 04:03:51;;;;;;;7.87;7.07;;;;;;;;;;5058877;28;20596;-88
2022/12/05 04:06:22;;;;;;;7.80;7.07;;;;;;;;;;5044982;28;20197;-87
2022/12/05 04:08:54;;;;;;;9.67;8.13;;;;;;;;;;5054014;28;20210;-87
2022/12/05 04:11:23;;;;;;;9.03;8.13;;;;;;;;;;5064829;28;20208;-88
2022/12/05 04:13:52;;;;;;;8.17;7.30;;;;;;;;;;5035938;28;20724;-88
2022/12/05 04:19:17;;;;;;;10.93;7.43;;;;;;;;;;5067128;28;20228;-89
2022/12/05 04:21:45;;;;;;;8.20;7.40;;;;;;;;;;5060923;28;20216;-90
2022/12/05 04:27:16;;;;;;;8.60;7.33;;;;;;;;;;5065287;28;20212;-89
2022/12/05 04:30:02;;;;;;;8.90;6.97;;;;;;;;;;5049974;28;20210;-89
2022/12/05 04:32:39;;;;;;;9.20;8.07;;;;;;;;;;5043673;28;20228;-88
2022/12/05 04:35:11;;;;;;;7.87;6.97;;;;;;;;;;5053710;28;20243;-88
2022/12/05 04:37:41;;;;;;;7.20;6.50;;;;;;;;;;5051755;28;20594;-87
2022/12/05 04:40:12;;;;;;;8.40;7.53;;;;;;;;;;5054913;28;20252;-88
2022/12/05 04:42:41;;;;;;;7.20;6.13;;;;;;;;;;5033737;28;20205;-88
2022/12/05 04:45:12;;;;;;;8.43;7.63;;;;;;;;;;5050546;28;20208;-88
2022/12/05 04:47:46;;;;;;;8.83;8.03;;;;;;;;;;5057171;28;20212;-87
2022/12/05 04:50:14;;;;;;;9.07;8.17;;;;;;;;;;5074040;28;20212;-86
2022/12/05 04:52:42;;;;;;;6.97;6.27;;;;;;;;;;5046193;28;20217;-86
2022/12/05 04:55:10;;;;;;;9.20;6.90;;;;;;;;;;5071239;28;20221;-87
2022/12/05 04:57:42;;;;;;;11.47;7.80;;;;;;;;;;5067992;28;20197;-87
2022/12/05 05:00:10;;;;;;;10.33;9.13;;;;;;;;;;5068747;28;20279;-87
2022/12/05 05:02:42;;;;;;;11.00;9.90;;;;;;;;;;5054469;28;20221;-87
2022/12/05 05:05:11;;;;;;;8.97;8.07;;;;;;;;;;5072511;28;20264;-87
2022/12/05 05:07:44;;;;;;;10.47;9.37;;;;;;;;;;5061059;28;20209;-88
2022/12/05 05:10:13;;;;;;;10.70;8.83;;;;;;;;;;5061847;28;20243;-90
2022/12/05 05:12:40;;;;;;;9.53;8.53;;;;;;;;;;5063660;28;20201;-90
2022/12/05 05:15:11;;;;;;;10.00;8.67;;;;;;;;;;5054628;28;20236;-88
2022/12/05 05:17:39;;;;;;;10.03;8.90;;;;;;;;;;5071574;28;20201;-88
2022/12/05 05:20:26;;;;;;;9.23;8.23;;;;;;;;;;5073336;28;20671;-88
2022/12/05 05:22:54;;;;;;;9.63;8.37;;;;;;;;;;5059396;28;20205;-87
2022/12/05 05:25:22;;;;;;;9.47;8.57;;;;;;;;;;5059917;28;20320;-88
2022/12/05 05:27:51;;;;;;;10.63;9.53;;;;;;;;;;5056494;28;20690;-89
2022/12/05 05:30:43;;;;;;;11.87;8.97;;;;;;;;;;5074257;28;20284;-88
2022/12/05 05:33:10;;;;;;;11.33;9.50;;;;;;;;;;5074249;28;20263;-88
2022/12/05 05:35:40;;;;;;;10.23;9.23;;;;;;;;;;5073335;28;20232;-87
2022/12/05 05:38:07;;;;;;;10.63;9.53;;;;;;;;;;5073237;28;20208;-86
2022/12/05 05:40:36;;;;;;;10.80;9.37;;;;;;;;;;5041488;28;20245;-87
2022/12/05 05:43:04;;;;;;;10.43;8.17;;;;;;;;;;5048050;28;20612;-88
2022/12/05 05:45:31;;;;;;;11.60;9.60;;;;;;;;;;5061637;28;20270;-87
2022/12/05 05:47:59;;;;;;;11.77;9.43;;;;;;;;;;5052760;28;20204;-88
2022/12/05 05:50:26;;;;;;;11.17;9.53;;;;;;;;;;5066088;28;20232;-87
2022/12/05 05:52:56;;;;;;;12.07;9.57;;;;;;;;;;5044864;28;20206;-87
2022/12/05 05:55:24;;;;;;;11.43;9.70;;;;;;;;;;5064616;28;20247;-88
2022/12/05 05:57:51;;;;;;;9.70;8.70;;;;;;;;;;5049683;28;20217;-87
2022/12/05 06:00:18;;;;;;;9.43;8.53;;;;;;;;;;5054765;28;20212;-88
2022/12/05 06:02:45;;;;;;;9.30;8.40;;;;;;;;;;5052133;28;20680;-85
2022/12/05 06:05:13;;;;;;;10.50;9.37;;;;;;;;;;5060622;28;20224;-90
2022/12/05 06:07:40;;;;;;;11.47;8.77;;;;;;;;;;5068686;28;20570;-85
2022/12/05 06:10:10;;;;;;;11.17;8.97;;;;;;;;;;5072368;28;20204;-78
2022/12/05 06:12:37;;;;;;;9.73;8.73;;;;;;;;;;5041850;28;20202;-89
2022/12/05 06:15:05;;;;;;;9.73;8.73;;;;;;;;;;5059317;28;20225;-83
2022/12/05 06:17:32;;;;;;;13.93;10.77;;;;;;;;;;5072416;28;20197;-89
2022/12/05 06:19:59;;;;;;;10.77;9.27;;;;;;;;;;5064224;28;20206;-90
2022/12/05 06:22:26;;;;;;;12.60;10.13;;;;;;;;;;5066869;28;20213;-89
2022/12/05 06:24:53;;;;;;;13.67;9.77;;;;;;;;;;5072686;28;20208;-88
2022/12/05 06:27:22;;;;;;;12.03;10.27;;;;;;;;;;5047354;28;20204;-88
2022/12/05 06:29:49;;;;;;;13.70;10.97;;;;;;;;;;5044953;28;20212;-88
2022/12/05 06:32:16;;;;;;;12.43;9.83;;;;;;;;;;5063221;28;20212;-94
2022/12/05 06:34:43;;;;;;;10.83;9.70;;;;;;;;;;5038129;28;20214;-87
2022/12/05 06:37:10;;;;;;;11.57;9.50;;;;;;;;;;5071562;28;20247;-86
2022/12/05 06:39:37;;;;;;;10.20;9.20;;;;;;;;;;5057880;28;20217;-87
2022/12/05 06:42:05;;;;;;;10.10;9.10;;;;;;;;;;5040114;28;20328;-86
2022/12/05 06:44:33;;;;;;;10.13;8.90;;;;;;;;;;5033598;28;20206;-89
2022/12/05 06:47:00;;;;;;;10.33;8.70;;;;;;;;;;5070241;28;20209;-87
2022/12/05 06:49:31;;;;;;;10.77;9.30;;;;;;;;;;5072796;28;20204;-88
2022/12/05 06:51:58;;;;;;;10.33;9.17;;;;;;;;;;5069126;28;20210;-87
2022/12/05 06:54:25;;;;;;;11.10;9.60;;;;;;;;;;5039033;28;20189;-88
2022/12/05 06:56:53;;;;;;;11.97;10.77;;;;;;;;;;5071939;28;20229;-88
2022/12/05 06:59:20;;;;;;;14.50;9.70;;;;;;;;;;5072360;28;20209;-89
2022/12/05 07:01:47;;;;;;;10.63;8.80;;;;;;;;;;5053985;28;20215;-87
2022/12/05 07:04:16;;;;;;;12.17;9.80;;;;;;;;;;5057574;28;20684;-91
2022/12/05 07:06:49;;;;;;;13.33;11.93;;;;;;;;;;5068461;28;20193;-87
2022/12/05 07:09:16;;;;;;;17.00;12.10;;;;;;;;;;5071026;28;20751;-90
2022/12/05 07:11:43;;;;;;;25.17;16.50;;;;;;;;;;5053863;28;20296;-88
2022/12/05 07:14:11;;;;;;;20.00;14.87;;;;;;;;;;5071815;28;20258;-88
2022/12/05 07:16:38;;;;;;;18.60;14.30;;;;;;;;;;5071783;28;20227;-86
2022/12/05 07:19:07;;;;;;;17.33;14.73;;;;;;;;;;5042718;28;20210;-90
2022/12/05 07:21:34;;;;;;;15.53;13.87;;;;;;;;;;5070024;28;20203;-89
2022/12/05 07:24:01;;;;;;;15.27;13.53;;;;;;;;;;5039813;28;20205;-88
2022/12/05 07:26:28;;;;;;;20.20;16.53;;;;;;;;;;5054008;28;20205;-87
2022/12/05 07:28:56;;;;;;;20.67;16.63;;;;;;;;;;5053701;28;20258;-92
2022/12/05 07:31:24;;;;;;;14.83;12.67;;;;;;;;;;5071755;28;20287;-87
2022/12/05 07:33:52;;;;;;;12.37;11.07;;;;;;;;;;5039526;28;20201;-88
2022/12/05 07:36:22;;;;;;;14.10;11.33;;;;;;;;;;5071684;28;20225;-90
2022/12/05 07:38:54;;;;;;;14.60;13.03;;;;;;;;;;5070315;28;20219;-88
2022/12/05 07:41:23;;;;;;;15.10;13.60;;;;;;;;;;5071270;28;20239;-87
2022/12/05 07:43:51;;;;;;;16.37;13.80;;;;;;;;;;5057625;28;20648;-87
2022/12/05 07:46:18;;;;;;;14.40;12.60;;;;;;;;;;5071398;28;20205;-88
2022/12/05 07:48:45;;;;;;;11.90;10.63;;;;;;;;;;5053735;28;20200;-86
2022/12/05 07:51:12;;;;;;;12.03;9.23;;;;;;;;;;5047998;28;20217;-86
2022/12/05 07:53:42;;;;;;;11.13;9.60;;;;;;;;;;5062929;28;20254;-87
2022/12/05 07:56:10;;;;;;;13.53;9.67;;;;;;;;;;5071370;28;20232;-87
2022/12/05 07:58:37;;;;;;;14.20;12.13;;;;;;;;;;5066401;28;20200;-88
2022/12/05 08:01:08;;;;;;;16.23;10.60;;;;;;;;;;5070795;28;20236;-83
2022/12/05 08:03:36;;;;;;;10.37;9.37;;;;;;;;;;5050869;28;20210;-83
2022/12/05 08:06:04;;;;;;;11.97;10.17;;;;;;;;;;5033224;28;20218;-85
2022/12/05 08:08:31;;;;;;;12.57;11.07;;;;;;;;;;5052337;28;20201;-88
2022/12/05 08:11:05;;;;;;;12.50;10.60;;;;;;;;;;5070864;28;20213;-88
2022/12/05 08:13:31;;;;;;;16.63;12.10;;;;;;;;;;5056951;28;20209;-86
2022/12/05 08:16:02;;;;;;;19.67;14.77;;;;;;;;;;5061817;28;20781;-93
2022/12/05 08:18:29;;;;;;;13.03;11.53;;;;;;;;;;5036519;28;20293;-90
2022/12/05 08:20:55;;;;;;;10.83;9.73;;;;;;;;;;5074474;28;20252;-90
2022/12/05 08:23:22;;;;;;;12.53;10.03;;;;;;;;;;5056543;28;20217;-86
2022/12/05 08:25:50;;;;;;;12.73;11.40;;;;;;;;;;5067793;28;20210;-86
2022/12/05 08:28:19;;;;;;;10.70;9.60;;;;;;;;;;5049284;28;20205;-86
2022/12/05 08:30:46;;;;;;;13.17;9.90;;;;;;;;;;5074058;28;20197;-88
2022/12/05 08:33:13;;;;;;;11.27;9.27;;;;;;;;;;5056689;28;20561;-86
2022/12/05 08:35:40;;;;;;;10.40;8.47;;;;;;;;;;5056417;28;20201;-89
2022/12/05 08:38:08;;;;;;;10.53;8.07;;;;;;;;;;5057455;28;20209;-90
2022/12/05 08:40:35;;;;;;;9.00;8.10;;;;;;;;;;5075445;28;20221;-88
2022/12/05 08:43:02;;;;;;;11.03;9.10;;;;;;;;;;5065155;28;20205;-87
2022/12/05 08:45:30;;;;;;;14.17;12.17;;;;;;;;;;5056560;28;20216;-87
2022/12/05 08:47:58;;;;;;;12.50;10.60;;;;;;;;;;5073833;28;20706;-87
2022/12/05 08:50:24;;;;;;;9.60;8.40;;;;;;;;;;5056532;28;20568;-87
2022/12/05 08:52:52;;;;;;;10.97;9.27;;;;;;;;;;5056813;28;20568;-89
2022/12/05 08:55:19;;;;;;;19.13;12.33;;;;;;;;;;5057471;28;20223;-93
2022/12/05 08:57:46;;;;;;;9.63;8.43;;;;;;;;;;5043007;28;20229;-87
2022/12/05 09:00:14;;;;;;;13.70;11.40;;;;;;;;;;5050928;28;20217;-91
2022/12/05 09:02:43;;;;;;;11.40;8.87;;;;;;;;;;5037239;28;20700;-83
2022/12/05 09:05:10;;;;;;;16.03;11.37;;;;;;;;;;5067489;28;20205;-84
2022/12/05 09:07:37;;;;;;;17.93;11.63;;;;;;;;;;5035866;28;20209;-87
2022/12/05 09:10:05;;;;;;;12.53;8.30;;;;;;;;;;5063783;28;20201;-86
2022/12/05 09:12:32;;;;;;;9.37;7.27;;;;;;;;;;5073565;28;20231;-87
2022/12/05 09:14:59;;;;;;;8.40;7.10;;;;;;;;;;5070829;28;20204;-84
2022/12/05 09:17:27;;;;;;;7.63;6.10;;;;;;;;;;5044448;28;20711;-88
2022/12/05 09:19:56;;;;;;;7.27;5.00;;;;;;;;;;5059079;28;20284;-89
2022/12/05 09:22:24;;;;;;;8.17;6.87;;;;;;;;;;5061372;28;20209;-87
2022/12/05 09:24:51;;;;;;;8.00;6.37;;;;;;;;;;5047178;28;20219;-92
2022/12/05 09:27:21;;;;;;;7.03;6.33;;;;;;;;;;5047791;28;20655;-91
2022/12/05 09:29:48;;;;;;;6.03;5.50;;;;;;;;;;5046260;28;20216;-92
2022/12/05 09:32:15;;;;;;;9.03;7.33;;;;;;;;;;5053245;28;20566;-92
2022/12/05 09:34:43;;;;;;;9.77;7.00;;;;;;;;;;5068101;28;20621;-87
2022/12/05 09:37:11;;;;;;;6.73;5.73;;;;;;;;;;5045929;28;20233;-89
2022/12/05 09:39:39;;;;;;;5.30;4.80;;;;;;;;;;5051745;28;21407;-87
2022/12/05 09:42:22;;;;;;;5.33;4.57;;;;;;;;;;5045790;28;20244;-91
2022/12/05 09:45:18;;;;;;;4.67;4.27;;;;;;;;;;5039883;28;20206;-91
2022/12/05 09:47:50;;;;;;;4.73;4.33;;;;;;;;;;5044143;28;20201;-88
2022/12/05 09:50:20;;;;;;;5.03;4.57;;;;;;;;;;5048186;28;20585;-87
2022/12/05 09:53:09;;;;;;;6.27;5.63;;;;;;;;;;5050539;28;20279;-90
2022/12/05 09:55:42;;;;;;;5.87;5.27;;;;;;;;;;5050075;28;20209;-89
2022/12/05 09:58:20;;;;;;;6.53;5.93;;;;;;;;;;5039595;28;20226;-87
2022/12/05 10:00:48;;;;;;;4.87;4.40;;;;;;;;;;5043198;28;20222;-87
2022/12/05 10:03:22;;;;;;;5.00;4.50;;;;;;;;;;5036729;28;20658;-91
2022/12/05 10:05:56;;;;;;;4.87;4.47;;;;;;;;;;5052562;28;20209;-94
2022/12/05 10:08:26;;;;;;;6.83;4.97;;;;;;;;;;5052278;28;20210;-90
2022/12/05 10:11:00;;;;;;;11.33;9.87;;;;;;;;;;5052981;28;20221;-91
2022/12/05 10:13:46;;;;;;;8.00;7.17;;;;;;;;;;5049758;28;20216;-89
2022/12/05 10:16:15;;;;;;;6.53;5.77;;;;;;;;;;5052681;28;20264;-89
2022/12/05 10:18:45;;;;;;;4.47;4.10;;;;;;;;;;5049078;28;20217;-88
2022/12/05 10:21:16;;;;;;;4.30;3.90;;;;;;;;;;5043049;28;20198;-88
2022/12/05 10:23:51;;;;;;;4.60;4.20;;;;;;;;;;5037971;28;20205;-85
2022/12/05 10:26:19;;;;;;;6.30;5.80;;;;;;;;;;5051999;28;20201;-86
2022/12/05 10:28:52;;;;;;;4.90;4.40;;;;;;;;;;5050320;28;20202;-84
2022/12/05 10:31:24;;;;;;;5.30;4.80;;;;;;;;;;5050640;28;20756;-86
2022/12/05 10:33:56;;;;;;;4.27;3.90;;;;;;;;;;5051392;28;20206;-85
2022/12/05 10:36:25;;;;;;;6.00;5.40;;;;;;;;;;5052013;28;20636;-86
2022/12/05 10:38:55;;;;;;;3.87;3.47;;;;;;;;;;5051892;28;20212;-85
2022/12/05 10:41:22;;;;;;;4.37;3.93;;;;;;;;;;5054477;28;20226;-86
2022/12/05 10:43:49;;;;;;;4.27;3.97;;;;;;;;;;5060564;28;20201;-86
2022/12/05 10:46:17;;;;;;;4.50;4.03;;;;;;;;;;5071478;28;20570;-87
2022/12/05 10:48:43;;;;;;;4.37;3.97;;;;;;;;;;5071454;28;20197;-87
2022/12/05 10:51:14;;;;;;;4.77;4.37;;;;;;;;;;5054089;28;20205;-87
2022/12/05 10:53:43;;;;;;;6.70;6.03;;;;;;;;;;5060140;28;20611;-94
2022/12/05 10:56:42;;;;;;;7.60;6.37;;;;;;;;;;5066508;28;20213;-91
2022/12/05 10:59:11;;;;;;;6.00;5.40;;;;;;;;;;5072348;28;20235;-87
2022/12/05 11:01:44;;;;;;;5.90;5.40;;;;;;;;;;5053921;28;20217;-86
2022/12/05 11:04:27;;;;;;;6.13;5.30;;;;;;;;;;5062086;28;20679;-87
2022/12/05 11:06:58;;;;;;;5.00;4.53;;;;;;;;;;5071460;28;20410;-88
2022/12/05 11:09:26;;;;;;;7.63;6.70;;;;;;;;;;5071319;28;20262;-86
2022/12/05 11:12:17;;;;;;;10.23;9.23;;;;;;;;;;5071369;28;20201;-84
2022/12/05 11:14:59;;;;;;;9.50;8.47;;;;;;;;;;5057625;28;20601;-88
2022/12/05 11:17:27;;;;;;;10.73;9.63;;;;;;;;;;5037111;28;20236;-88
2022/12/05 11:19:54;;;;;;;8.93;7.83;;;;;;;;;;5056149;28;20215;-87
2022/12/05 11:22:24;;;;;;;10.83;8.10;;;;;;;;;;5064798;28;20236;-85
2022/12/05 11:24:51;;;;;;;8.90;7.83;;;;;;;;;;5063368;28;20707;-85
2022/12/05 11:27:28;;;;;;;12.43;10.37;;;;;;;;;;5060107;28;20264;-88
2022/12/05 11:29:58;;;;;;;11.80;8.77;;;;;;;;;;5071128;28;20209;-90
2022/12/05 11:32:26;;;;;;;10.77;8.73;;;;;;;;;;5070739;28;20212;-87
2022/12/05 11:34:59;;;;;;;16.10;11.83;;;;;;;;;;5052675;28;20209;-86
2022/12/05 11:37:28;;;;;;;15.40;12.70;;;;;;;;;;5063536;28;20225;-87
2022/12/05 11:39:55;;;;;;;14.60;13.03;;;;;;;;;;5058019;28;20603;-87
2022/12/05 11:42:31;;;;;;;14.67;12.87;;;;;;;;;;5051009;28;20617;-87
2022/12/05 11:45:19;;;;;;;19.47;14.20;;;;;;;;;;5072098;28;20584;-87
2022/12/05 11:47:58;;;;;;;16.27;13.60;;;;;;;;;;5058108;28;20201;-91
2022/12/05 11:50:37;;;;;;;12.80;11.43;;;;;;;;;;5071585;28;20765;-88
2022/12/05 11:53:14;;;;;;;16.00;14.27;;;;;;;;;;5037074;28;20209;-90
2022/12/05 11:55:44;;;;;;;17.13;13.57;;;;;;;;;;5056474;28;20270;-89
2022/12/05 11:58:33;;;;;;;17.30;12.13;;;;;;;;;;5073284;28;20245;-89
2022/12/05 12:01:10;;;;;;;12.20;10.93;;;;;;;;;;5072702;28;20208;-90
2022/12/05 12:04:07;;;;;;;17.63;14.47;;;;;;;;;;5055714;28;20198;-94
2022/12/05 12:06:42;;;;;;;14.00;12.47;;;;;;;;;;5071576;28;20243;-89
2022/12/05 12:09:27;;;;;;;17.83;12.43;;;;;;;;;;5057779;28;20211;-92
2022/12/05 12:11:57;;;;;;;14.40;11.80;;;;;;;;;;5055735;28;20266;-88
2022/12/05 12:14:33;;;;;;;10.73;8.93;;;;;;;;;;5065202;28;20213;-91
2022/12/05 12:17:08;;;;;;;9.70;8.70;;;;;;;;;;5058946;28;20220;-88
2022/12/05 12:19:51;;;;;;;10.30;8.97;;;;;;;;;;5073973;28;20250;-86
2022/12/05 12:22:36;;;;;;;6.50;5.87;;;;;;;;;;5051704;28;20193;-87
2022/12/05 12:25:16;;;;;;;6.43;5.83;;;;;;;;;;5064505;28;20202;-87
2022/12/05 12:27:52;;;;;;;6.27;5.67;;;;;;;;;;5049000;28;20197;-87
2022/12/05 12:30:23;;;;;;;6.57;5.70;;;;;;;;;;5062871;28;20208;-88
2022/12/05 12:32:58;;;;;;;7.80;6.93;;;;;;;;;;5064778;28;20568;-87
2022/12/05 12:35:31;;;;;;;6.87;5.37;;;;;;;;;;5056271;28;20278;-88
2022/12/05 12:38:17;;;;;;;6.43;5.80;;;;;;;;;;5060814;28;20232;-86
2022/12/05 12:40:48;;;;;;;10.17;6.90;;;;;;;;;;5072563;28;20769;-92
2022/12/05 12:43:25;;;;;;;6.30;5.70;;;;;;;;;;5074630;28;20292;-88
2022/12/05 12:46:05;;;;;;;5.87;5.30;;;;;;;;;;5074362;28;20209;-88
2022/12/05 12:48:50;;;;;;;5.73;5.10;;;;;;;;;;5073456;28;20208;-87
2022/12/05 12:51:17;;;;;;;6.97;6.37;;;;;;;;;;5056451;28;20215;-87
2022/12/05 12:54:32;;;;;;;6.83;6.23;;;;;;;;;;5045953;28;20619;-88
2022/12/05 12:57:06;;;;;;;8.47;6.90;;;;;;;;;;5023366;28;20760;-88
2022/12/05 12:59:43;;;;;;;7.37;6.63;;;;;;;;;;5070063;28;20209;-90
2022/12/05 13:02:17;;;;;;;6.47;5.83;;;;;;;;;;5069553;28;20262;-91
2022/12/05 13:04:48;;;;;;;5.73;5.23;;;;;;;;;;5059969;28;20575;-88
2022/12/05 13:07:18;;;;;;;5.50;4.87;;;;;;;;;;5048895;28;20201;-92
2022/12/05 13:09:49;;;;;;;6.40;5.70;;;;;;;;;;5068425;28;20205;-90
2022/12/05 13:12:17;;;;;;;7.60;5.83;;;;;;;;;;5061661;28;20244;-87
2022/12/05 13:14:49;;;;;;;6.67;5.97;;;;;;;;;;5060337;28;20206;-87
2022/12/05 13:17:20;;;;;;;9.30;6.53;;;;;;;;;;5059792;28;20777;-94
2022/12/05 13:19:49;;;;;;;8.97;6.70;;;;;;;;;;5074550;28;20601;-93
2022/12/05 13:22:18;;;;;;;8.07;7.27;;;;;;;;;;5037668;28;20214;-90
2022/12/05 13:24:45;;;;;;;7.07;6.07;;;;;;;;;;5066785;28;20216;-91
2022/12/05 13:27:16;;;;;;;17.30;12.10;;;;;;;;;;5074162;28;20193;-88
2022/12/05 13:29:49;;;;;;;14.77;11.17;;;;;;;;;;5073273;28;20239;-89
2022/12/05 13:32:28;;;;;;;17.80;12.70;;;;;;;;;;5073956;28;20197;-88
2022/12/05 13:34:55;;;;;;;40.07;24.10;;;;;;;;;;5073368;28;20208;-86
2022/12/05 13:43:08;;;;;;;9.00;8.10;;;;;;;;;;5050181;28;20251;-89
2022/12/05 13:45:36;;;;;;;12.10;9.73;;;;;;;;;;5053270;28;20220;-89
2022/12/05 13:48:21;;;;;;;19.53;12.00;;;;;;;;;;5043230;28;20691;-89
2022/12/05 13:50:54;;;;;;;21.50;15.43;;;;;;;;;;5071799;28;20205;-88
2022/12/05 13:53:30;;;;;;;21.93;15.97;;;;;;;;;;5073264;28;20205;-91
2022/12/05 13:55:59;;;;;;;61.00;31.07;;;;;;;;;;5070974;28;20204;-88
2022/12/05 13:58:48;;;;;;;75.00;36.93;;;;;;;;;;5055561;28;20236;-85
2022/12/05 14:01:49;;;;;;;95.37;47.47;;;;;;;;;;5041598;28;20210;-91
2022/12/05 14:04:45;;;;;;;149.17;72.30;;;;;;;;;;5054723;28;20250;-84
2022/12/05 14:07:12;;;;;;;72.93;40.50;;;;;;;;;;5072645;28;20243;-85
2022/12/05 14:09:52;;;;;;;53.10;28.60;;;;;;;;;;5072357;28;20636;-85
2022/12/05 14:12:50;;;;;;;142.30;63.77;;;;;;;;;;5071914;28;20648;-86
2022/12/05 14:15:41;;;;;;;26.70;16.10;;;;;;;;;;5070254;28;20258;-86
2022/12/05 14:18:15;;;;;;;19.30;15.33;;;;;;;;;;5068220;28;20232;-88
2022/12/05 14:20:56;;;;;;;36.37;25.57;;;;;;;;;;5072297;28;20326;-85
2022/12/05 14:23:46;;;;;;;35.90;27.37;;;;;;;;;;5063271;28;20205;-87
2022/12/05 14:26:31;;;;;;;26.50;19.40;;;;;;;;;;5044563;28;20210;-87
2022/12/05 14:29:19;;;;;;;17.80;15.27;;;;;;;;;;5057019;28;20251;-95
2022/12/05 14:31:57;;;;;;;11.43;10.17;;;;;;;;;;5071253;28;20205;-88
2022/12/05 14:34:25;;;;;;;11.80;10.53;;;;;;;;;;5071335;28;20212;-90
2022/12/05 14:36:55;;;;;;;20.40;14.63;;;;;;;;;;5061282;28;20212;-87
2022/12/05 14:39:23;;;;;;;23.17;20.60;;;;;;;;;;5065901;28;20225;-87
2022/12/05 14:41:57;;;;;;;32.77;26.53;;;;;;;;;;5051966;28;20234;-86
2022/12/05 14:44:29;;;;;;;32.80;23.50;;;;;;;;;;5068806;28;20205;-88
2022/12/05 14:46:57;;;;;;;33.13;25.40;;;;;;;;;;5039065;28;20201;-87
2022/12/05 14:49:37;;;;;;;19.13;17.17;;;;;;;;;;5040861;28;20608;-88
2022/12/05 14:52:11;;;;;;;20.97;18.87;;;;;;;;;;5059358;28;20205;-87
2022/12/05 14:54:42;;;;;;;16.43;14.77;;;;;;;;;;5053640;28;20287;-87
2022/12/05 14:57:15;;;;;;;30.20;22.77;;;;;;;;;;5054375;28;20201;-89
2022/12/05 14:59:47;;;;;;;54.70;36.43;;;;;;;;;;5040563;28;20279;-86
2022/12/05 15:02:19;;;;;;;83.67;58.17;;;;;;;;;;5063452;28;20213;-86
2022/12/05 15:04:49;;;;;;;78.07;52.47;;;;;;;;;;5066222;28;20201;-86
2022/12/05 15:07:20;;;;;;;55.70;43.47;;;;;;;;;;5070901;28;20962;-89
2022/12/05 15:09:56;;;;;;;39.43;32.53;;;;;;;;;;5071363;28;20213;-88
2022/12/05 15:12:30;;;;;;;45.53;33.93;;;;;;;;;;5065808;28;20229;-88